Saint Bonnet de Bellac- Haute Vienne - France
Donnes mto: dimanche, 25/12/2011
Date Horaire Temp. E. Hum. E. P.atmo. Pluie Vent Direction Direction Ensoleilleme Solaire P. de rose Temp au vent Rafales
25/12/2011 00:00 -0,9 C 91 % 1035,0 hPa 0,0 mm 2,5 km/h (1 Bft) E 90 0 min 0 W/m -2,2 C -0,9 C 4,0 km/h (1 Bft)
25/12/2011 00:05 -0,9 C 91 % 1035,0 hPa 0,0 mm 1,1 km/h (1 Bft) E-SE 112 0 min 0 W/m -2,2 C -0,9 C 4,0 km/h (1 Bft)
25/12/2011 00:10 -0,9 C 91 % 1035,0 hPa 0,0 mm 0,0 km/h (0 Bft) E-SE 112 0 min 0 W/m -2,2 C -0,9 C 0,0 km/h (0 Bft)
25/12/2011 00:15 -0,9 C 91 % 1035,0 hPa 0,0 mm 0,0 km/h (0 Bft) E-SE 112 0 min 0 W/m -2,2 C -0,9 C 0,0 km/h (0 Bft)
25/12/2011 00:20 -1,1 C 91 % 1035,0 hPa 0,0 mm 0,0 km/h (0 Bft) E-SE 112 0 min 0 W/m -2,4 C -1,1 C 0,0 km/h (0 Bft)
25/12/2011 00:25 -1,2 C 91 % 1035,0 hPa 0,0 mm 0,7 km/h (0 Bft) E-NE 67 0 min 0 W/m -2,5 C -1,2 C 2,9 km/h (1 Bft)
25/12/2011 00:30 -1,2 C 91 % 1035,0 hPa 0,0 mm 0,0 km/h (0 Bft) E 90 0 min 0 W/m -2,5 C -1,2 C 0,0 km/h (0 Bft)
25/12/2011 00:35 -1,2 C 91 % 1035,0 hPa 0,0 mm 0,0 km/h (0 Bft) E 90 0 min 0 W/m -2,5 C -1,2 C 0,0 km/h (0 Bft)
25/12/2011 00:40 -1,2 C 91 % 1035,0 hPa 0,0 mm 0,0 km/h (0 Bft) E 90 0 min 0 W/m -2,5 C -1,2 C 0,0 km/h (0 Bft)
25/12/2011 00:45 -1,4 C 91 % 1035,0 hPa 0,0 mm 0,0 km/h (0 Bft) E 90 0 min 0 W/m -2,7 C -1,4 C 0,0 km/h (0 Bft)
25/12/2011 00:50 -1,4 C 92 % 1035,0 hPa 0,0 mm 0,0 km/h (0 Bft) E 90 0 min 0 W/m -2,5 C -1,4 C 0,0 km/h (0 Bft)
25/12/2011 00:55 -1,5 C 91 % 1035,1 hPa 0,0 mm 0,0 km/h (0 Bft) E 90 0 min 0 W/m -2,8 C -1,5 C 0,0 km/h (0 Bft)
25/12/2011 01:00 -1,6 C 91 % 1035,0 hPa 0,0 mm 0,0 km/h (0 Bft) E 90 0 min 0 W/m -2,9 C -1,6 C 0,0 km/h (0 Bft)
25/12/2011 01:05 -1,7 C 92 % 1035,0 hPa 0,0 mm 0,0 km/h (0 Bft) E 90 0 min 0 W/m -2,8 C -1,7 C 0,0 km/h (0 Bft)
25/12/2011 01:10 -1,7 C 92 % 1035,0 hPa 0,0 mm 0,0 km/h (0 Bft) E 90 0 min 0 W/m -2,8 C -1,7 C 0,0 km/h (0 Bft)
25/12/2011 01:15 -1,7 C 92 % 1035,0 hPa 0,0 mm 0,0 km/h (0 Bft) E 90 0 min 0 W/m -2,8 C -1,7 C 0,0 km/h (0 Bft)
25/12/2011 01:20 -1,7 C 92 % 1034,9 hPa 0,0 mm 0,0 km/h (0 Bft) E 90 0 min 0 W/m -2,8 C -1,7 C 0,0 km/h (0 Bft)
25/12/2011 01:25 -1,8 C 92 % 1034,9 hPa 0,0 mm 0,0 km/h (0 Bft) E 90 0 min 0 W/m -2,9 C -1,8 C 0,0 km/h (0 Bft)
25/12/2011 01:30 -1,8 C 92 % 1034,8 hPa 0,0 mm 0,0 km/h (0 Bft) E 90 0 min 0 W/m -2,9 C -1,8 C 0,0 km/h (0 Bft)
25/12/2011 01:35 -1,9 C 92 % 1034,5 hPa 0,0 mm 0,0 km/h (0 Bft) E 90 0 min 0 W/m -3,0 C -1,9 C 0,0 km/h (0 Bft)
25/12/2011 01:40 -1,9 C 92 % 1034,6 hPa 0,0 mm 0,0 km/h (0 Bft) E 90 0 min 0 W/m -3,0 C -1,9 C 0,0 km/h (0 Bft)
25/12/2011 01:45 -2,1 C 92 % 1034,6 hPa 0,0 mm 0,0 km/h (0 Bft) E 90 0 min 0 W/m -3,2 C -2,1 C 0,0 km/h (0 Bft)
25/12/2011 01:50 -2,2 C 92 % 1034,5 hPa 0,0 mm 0,0 km/h (0 Bft) E 90 0 min 0 W/m -3,3 C -2,2 C 0,0 km/h (0 Bft)
25/12/2011 01:55 -2,2 C 92 % 1034,6 hPa 0,0 mm 0,0 km/h (0 Bft) E 90 0 min 0 W/m -3,3 C -2,2 C 0,0 km/h (0 Bft)
25/12/2011 02:02 -2,0 C 92 % 1034,5 hPa 0,0 mm 0,0 km/h (0 Bft) E 90 0 min 0 W/m -3,1 C -2,0 C 0,0 km/h (0 Bft)
25/12/2011 02:05 -1,9 C 92 % 1034,4 hPa 0,0 mm 0,0 km/h (0 Bft) E-SE 112 0 min 0 W/m -3,0 C -1,9 C 0,0 km/h (0 Bft)
25/12/2011 02:10 -1,9 C 92 % 1034,2 hPa 0,0 mm 0,0 km/h (0 Bft) E-SE 112 0 min 0 W/m -3,0 C -1,9 C 0,0 km/h (0 Bft)
25/12/2011 02:15 -1,8 C 92 % 1034,2 hPa 0,0 mm 0,0 km/h (0 Bft) E-SE 112 0 min 0 W/m -2,9 C -1,8 C 0,0 km/h (0 Bft)
25/12/2011 02:20 -1,9 C 92 % 1034,3 hPa 0,0 mm 0,0 km/h (0 Bft) E-SE 112 0 min 0 W/m -3,0 C -1,9 C 0,0 km/h (0 Bft)
25/12/2011 02:25 -2,0 C 92 % 1034,2 hPa 0,0 mm 0,0 km/h (0 Bft) E-SE 112 0 min 0 W/m -3,1 C -2,0 C 0,0 km/h (0 Bft)
25/12/2011 02:30 -2,0 C 92 % 1034,2 hPa 0,0 mm 0,0 km/h (0 Bft) E-SE 112 0 min 0 W/m -3,1 C -2,0 C 0,0 km/h (0 Bft)
25/12/2011 02:35 -2,0 C 92 % 1034,1 hPa 0,0 mm 0,0 km/h (0 Bft) E-SE 112 0 min 0 W/m -3,1 C -2,0 C 0,0 km/h (0 Bft)
25/12/2011 02:40 -2,0 C 92 % 1034,3 hPa 0,0 mm 0,0 km/h (0 Bft) E-SE 112 0 min 0 W/m -3,1 C -2,0 C 0,0 km/h (0 Bft)
25/12/2011 02:45 -2,1 C 92 % 1034,3 hPa 0,0 mm 0,0 km/h (0 Bft) E-SE 112 0 min 0 W/m -3,2 C -2,1 C 0,0 km/h (0 Bft)
25/12/2011 02:50 -2,1 C 92 % 1034,3 hPa 0,0 mm 0,0 km/h (0 Bft) E-SE 112 0 min 0 W/m -3,2 C -2,1 C 0,0 km/h (0 Bft)
25/12/2011 02:55 -2,1 C 92 % 1034,3 hPa 0,0 mm 0,0 km/h (0 Bft) E-SE 112 0 min 0 W/m -3,2 C -2,1 C 0,0 km/h (0 Bft)
25/12/2011 03:00 -2,2 C 92 % 1034,3 hPa 0,0 mm 0,0 km/h (0 Bft) E-SE 112 0 min 0 W/m -3,3 C -2,2 C 0,0 km/h (0 Bft)
25/12/2011 03:05 -2,2 C 92 % 1034,3 hPa 0,0 mm 0,0 km/h (0 Bft) E-SE 112 0 min 0 W/m -3,3 C -2,2 C 0,0 km/h (0 Bft)
25/12/2011 03:10 -2,1 C 92 % 1034,4 hPa 0,0 mm 0,0 km/h (0 Bft) E-SE 112 0 min 0 W/m -3,2 C -2,1 C 0,0 km/h (0 Bft)
25/12/2011 03:15 -2,1 C 92 % 1034,5 hPa 0,0 mm 0,0 km/h (0 Bft) E-SE 112 0 min 0 W/m -3,2 C -2,1 C 0,0 km/h (0 Bft)
25/12/2011 03:20 -2,1 C 92 % 1034,5 hPa 0,0 mm 0,0 km/h (0 Bft) E-SE 112 0 min 0 W/m -3,2 C -2,1 C 0,0 km/h (0 Bft)
25/12/2011 03:25 -2,1 C 92 % 1034,5 hPa 0,0 mm 0,0 km/h (0 Bft) E-SE 112 0 min 0 W/m -3,2 C -2,1 C 0,0 km/h (0 Bft)
25/12/2011 03:30 -2,1 C 92 % 1034,6 hPa 0,0 mm 0,0 km/h (0 Bft) E-SE 112 0 min 0 W/m -3,2 C -2,1 C 0,0 km/h (0 Bft)
25/12/2011 03:35 -2,0 C 93 % 1034,7 hPa 0,0 mm 0,0 km/h (0 Bft) E 90 0 min 0 W/m -3,0 C -2,0 C 0,0 km/h (0 Bft)
25/12/2011 03:40 -2,0 C 93 % 1034,5 hPa 0,0 mm 0,0 km/h (0 Bft) E 90 0 min 0 W/m -3,0 C -2,0 C 0,0 km/h (0 Bft)
25/12/2011 03:45 -2,0 C 93 % 1034,5 hPa 0,0 mm 0,0 km/h (0 Bft) E 90 0 min 0 W/m -3,0 C -2,0 C 0,0 km/h (0 Bft)
25/12/2011 03:50 -2,1 C 92 % 1034,5 hPa 0,0 mm 0,0 km/h (0 Bft) E 90 0 min 0 W/m -3,2 C -2,1 C 0,0 km/h (0 Bft)
25/12/2011 03:55 -2,1 C 92 % 1034,4 hPa 0,0 mm 0,0 km/h (0 Bft) E 90 0 min 0 W/m -3,2 C -2,1 C 0,0 km/h (0 Bft)
25/12/2011 04:00 -2,2 C 92 % 1034,4 hPa 0,0 mm 0,0 km/h (0 Bft) E 90 0 min 0 W/m -3,3 C -2,2 C 0,0 km/h (0 Bft)
25/12/2011 04:05 -2,2 C 92 % 1034,5 hPa 0,0 mm 0,0 km/h (0 Bft) E 90 0 min 0 W/m -3,3 C -2,2 C 0,0 km/h (0 Bft)
25/12/2011 04:10 -2,2 C 92 % 1034,4 hPa 0,0 mm 0,0 km/h (0 Bft) E 90 0 min 0 W/m -3,3 C -2,2 C 0,0 km/h (0 Bft)
25/12/2011 04:15 -2,2 C 92 % 1034,4 hPa 0,0 mm 1,4 km/h (1 Bft) E 90 0 min 0 W/m -3,3 C -2,2 C 4,3 km/h (1 Bft)
25/12/2011 04:20 -2,1 C 92 % 1034,3 hPa 0,0 mm 2,5 km/h (1 Bft) E-SE 112 0 min 0 W/m -3,2 C -2,1 C 4,0 km/h (1 Bft)
25/12/2011 04:25 -2,0 C 93 % 1034,4 hPa 0,0 mm 2,5 km/h (1 Bft) E 90 0 min 0 W/m -3,0 C -2,0 C 4,3 km/h (1 Bft)
25/12/2011 04:30 -1,9 C 93 % 1034,5 hPa 0,0 mm 0,0 km/h (0 Bft) E-SE 112 0 min 0 W/m -2,9 C -1,9 C 3,6 km/h (1 Bft)
25/12/2011 04:35 -1,8 C 93 % 1034,5 hPa 0,0 mm 0,4 km/h (0 Bft) E 90 0 min 0 W/m -2,8 C -1,8 C 3,2 km/h (1 Bft)
25/12/2011 04:40 -1,7 C 93 % 1034,6 hPa 0,0 mm 0,0 km/h (0 Bft) E 90 0 min 0 W/m -2,7 C -1,7 C 0,0 km/h (0 Bft)
25/12/2011 04:45 -1,7 C 93 % 1034,8 hPa 0,0 mm 0,4 km/h (0 Bft) E 90 0 min 0 W/m -2,7 C -1,7 C 3,2 km/h (1 Bft)
25/12/2011 04:50 -1,7 C 93 % 1034,8 hPa 0,0 mm 0,4 km/h (0 Bft) E 90 0 min 0 W/m -2,7 C -1,7 C 4,0 km/h (1 Bft)
25/12/2011 04:55 -1,7 C 93 % 1034,6 hPa 0,0 mm 2,2 km/h (1 Bft) E 90 0 min 0 W/m -2,7 C -1,7 C 2,2 km/h (1 Bft)
25/12/2011 05:00 -1,7 C 93 % 1034,6 hPa 0,0 mm 2,9 km/h (1 Bft) E 90 0 min 0 W/m -2,7 C -1,7 C 4,3 km/h (1 Bft)
25/12/2011 05:05 -1,7 C 93 % 1034,6 hPa 0,0 mm 4,0 km/h (1 Bft) SE 135 0 min 0 W/m -2,7 C -1,7 C 6,1 km/h (2 Bft)
25/12/2011 05:10 -1,7 C 93 % 1034,6 hPa 0,0 mm 3,2 km/h (1 Bft) E 90 0 min 0 W/m -2,7 C -1,7 C 4,3 km/h (1 Bft)
25/12/2011 05:15 -1,7 C 93 % 1034,6 hPa 0,0 mm 2,2 km/h (1 Bft) E 90 0 min 0 W/m -2,7 C -1,7 C 4,3 km/h (1 Bft)
25/12/2011 05:20 -1,7 C 93 % 1034,5 hPa 0,0 mm 0,0 km/h (0 Bft) E 90 0 min 0 W/m -2,7 C -1,7 C 0,0 km/h (0 Bft)
25/12/2011 05:25 -1,7 C 93 % 1034,6 hPa 0,0 mm 0,0 km/h (0 Bft) E 90 0 min 0 W/m -2,7 C -1,7 C 0,0 km/h (0 Bft)
25/12/2011 05:30 -1,7 C 93 % 1034,5 hPa 0,0 mm 0,0 km/h (0 Bft) E 90 0 min 0 W/m -2,7 C -1,7 C 0,0 km/h (0 Bft)
25/12/2011 05:35 -1,8 C 93 % 1034,5 hPa 0,0 mm 0,0 km/h (0 Bft) E 90 0 min 0 W/m -2,8 C -1,8 C 0,0 km/h (0 Bft)
25/12/2011 05:40 -1,9 C 93 % 1034,4 hPa 0,0 mm 0,0 km/h (0 Bft) E 90 0 min 0 W/m -2,9 C -1,9 C 0,0 km/h (0 Bft)
25/12/2011 05:45 -1,9 C 93 % 1034,3 hPa 0,0 mm 0,0 km/h (0 Bft) E 90 0 min 0 W/m -2,9 C -1,9 C 0,0 km/h (0 Bft)
25/12/2011 05:50 -1,9 C 93 % 1034,3 hPa 0,0 mm 0,0 km/h (0 Bft) E 90 0 min 0 W/m -2,9 C -1,9 C 0,0 km/h (0 Bft)
25/12/2011 05:55 -1,9 C 93 % 1034,4 hPa 0,0 mm 0,0 km/h (0 Bft) E 90 0 min 0 W/m -2,9 C -1,9 C 0,0 km/h (0 Bft)
25/12/2011 06:00 -1,9 C 93 % 1034,4 hPa 0,0 mm 0,0 km/h (0 Bft) E 90 0 min 0 W/m -2,9 C -1,9 C 0,0 km/h (0 Bft)
25/12/2011 06:05 -1,9 C 93 % 1034,4 hPa 0,0 mm 0,0 km/h (0 Bft) E 90 0 min 0 W/m -2,9 C -1,9 C 0,0 km/h (0 Bft)
25/12/2011 06:10 -1,9 C 93 % 1034,4 hPa 0,0 mm 0,0 km/h (0 Bft) E 90 0 min 0 W/m -2,9 C -1,9 C 0,0 km/h (0 Bft)
25/12/2011 06:15 -1,9 C 93 % 1034,4 hPa 0,0 mm 0,0 km/h (0 Bft) E-NE 67 0 min 0 W/m -2,9 C -1,9 C 0,0 km/h (0 Bft)
25/12/2011 06:20 -1,7 C 93 % 1034,4 hPa 0,0 mm 2,9 km/h (1 Bft) E 90 0 min 0 W/m -2,7 C -1,7 C 4,3 km/h (1 Bft)
25/12/2011 06:25 -1,7 C 93 % 1034,5 hPa 0,0 mm 0,0 km/h (0 Bft) E 90 0 min 0 W/m -2,7 C -1,7 C 0,0 km/h (0 Bft)
25/12/2011 06:30 -1,5 C 93 % 1034,5 hPa 0,0 mm 0,0 km/h (0 Bft) E 90 0 min 0 W/m -2,5 C -1,5 C 0,0 km/h (0 Bft)
25/12/2011 06:35 -1,5 C 93 % 1034,6 hPa 0,0 mm 0,0 km/h (0 Bft) E 90 0 min 0 W/m -2,5 C -1,5 C 0,0 km/h (0 Bft)
25/12/2011 06:40 -1,5 C 93 % 1034,8 hPa 0,0 mm 0,0 km/h (0 Bft) E 90 0 min 0 W/m -2,5 C -1,5 C 0,0 km/h (0 Bft)
25/12/2011 06:45 -1,4 C 93 % 1034,8 hPa 0,0 mm 0,0 km/h (0 Bft) E 90 0 min 0 W/m -2,4 C -1,4 C 0,0 km/h (0 Bft)
25/12/2011 06:50 -1,4 C 93 % 1034,7 hPa 0,0 mm 0,0 km/h (0 Bft) E 90 0 min 0 W/m -2,4 C -1,4 C 0,0 km/h (0 Bft)
25/12/2011 06:55 -1,4 C 93 % 1034,6 hPa 0,0 mm 0,0 km/h (0 Bft) E 90 0 min 0 W/m -2,4 C -1,4 C 0,0 km/h (0 Bft)
25/12/2011 07:00 -1,4 C 93 % 1034,5 hPa 0,0 mm 0,0 km/h (0 Bft) E 90 0 min 0 W/m -2,4 C -1,4 C 0,0 km/h (0 Bft)
25/12/2011 07:05 -1,4 C 93 % 1034,6 hPa 0,0 mm 0,0 km/h (0 Bft) E 90 0 min 0 W/m -2,4 C -1,4 C 0,0 km/h (0 Bft)
25/12/2011 07:10 -1,4 C 93 % 1034,4 hPa 0,0 mm 0,0 km/h (0 Bft) E 90 0 min 0 W/m -2,4 C -1,4 C 3,2 km/h (1 Bft)
25/12/2011 07:15 -1,4 C 93 % 1034,4 hPa 0,0 mm 1,8 km/h (1 Bft) E 90 0 min 0 W/m -2,4 C -1,4 C 4,0 km/h (1 Bft)
25/12/2011 07:20 -1,4 C 93 % 1034,4 hPa 0,0 mm 1,1 km/h (1 Bft) E-SE 112 0 min 0 W/m -2,4 C -1,4 C 3,6 km/h (1 Bft)
25/12/2011 07:25 -1,4 C 93 % 1034,5 hPa 0,0 mm 0,0 km/h (0 Bft) E-SE 112 0 min 0 W/m -2,4 C -1,4 C 0,0 km/h (0 Bft)
25/12/2011 07:30 -1,4 C 93 % 1034,5 hPa 0,0 mm 0,0 km/h (0 Bft) E-SE 112 0 min 0 W/m -2,4 C -1,4 C 0,0 km/h (0 Bft)
25/12/2011 07:35 -1,5 C 93 % 1034,7 hPa 0,0 mm 0,0 km/h (0 Bft) E-SE 112 0 min 0 W/m -2,5 C -1,5 C 0,0 km/h (0 Bft)
25/12/2011 07:40 -1,6 C 93 % 1034,8 hPa 0,0 mm 0,0 km/h (0 Bft) E-SE 112 0 min 0 W/m -2,6 C -1,6 C 0,0 km/h (0 Bft)
25/12/2011 07:45 -1,7 C 93 % 1034,8 hPa 0,0 mm 0,0 km/h (0 Bft) E-SE 112 0 min 0 W/m -2,7 C -1,7 C 0,0 km/h (0 Bft)
25/12/2011 07:50 -1,7 C 93 % 1034,7 hPa 0,0 mm 0,0 km/h (0 Bft) E-SE 112 0 min 0 W/m -2,7 C -1,7 C 0,0 km/h (0 Bft)
25/12/2011 07:55 -1,7 C 93 % 1034,6 hPa 0,0 mm 0,7 km/h (0 Bft) E-SE 112 0 min 0 W/m -2,7 C -1,7 C 3,2 km/h (1 Bft)
25/12/2011 08:00 -1,7 C 93 % 1034,7 hPa 0,0 mm 0,0 km/h (0 Bft) E-SE 112 0 min 0 W/m -2,7 C -1,7 C 0,0 km/h (0 Bft)
25/12/2011 08:05 -1,7 C 93 % 1034,8 hPa 0,0 mm 0,0 km/h (0 Bft) E 90 0 min 0 W/m -2,7 C -1,7 C 3,2 km/h (1 Bft)
25/12/2011 08:10 -1,7 C 93 % 1034,8 hPa 0,0 mm 0,0 km/h (0 Bft) N 360 0 min 0 W/m -2,7 C -1,7 C 0,0 km/h (0 Bft)
25/12/2011 08:15 -1,7 C 93 % 1034,8 hPa 0,0 mm 5,0 km/h (1 Bft) E 90 0 min 0 W/m -2,7 C -3,5 C 7,2 km/h (2 Bft)
25/12/2011 08:20 -1,6 C 93 % 1034,9 hPa 0,0 mm 3,6 km/h (1 Bft) E-SE 112 0 min 0 W/m -2,6 C -1,6 C 4,3 km/h (1 Bft)
25/12/2011 08:25 -1,5 C 93 % 1034,9 hPa 0,0 mm 2,9 km/h (1 Bft) E-SE 112 0 min 0 W/m -2,5 C -1,5 C 4,3 km/h (1 Bft)
25/12/2011 08:30 -1,4 C 93 % 1035,0 hPa 0,0 mm 1,1 km/h (1 Bft) E 90 0 min 0 W/m -2,4 C -1,4 C 3,6 km/h (1 Bft)
25/12/2011 08:35 -1,2 C 93 % 1034,9 hPa 0,0 mm 0,0 km/h (0 Bft) E-SE 112 0 min 0 W/m -2,2 C -1,2 C 0,0 km/h (0 Bft)
25/12/2011 08:40 -1,1 C 93 % 1035,0 hPa 0,0 mm 0,0 km/h (0 Bft) E-SE 112 0 min 0 W/m -2,1 C -1,1 C 0,0 km/h (0 Bft)
25/12/2011 08:45 -1,1 C 93 % 1035,2 hPa 0,0 mm 0,0 km/h (0 Bft) E 90 0 min 0 W/m -2,1 C -1,1 C 2,9 km/h (1 Bft)
25/12/2011 08:50 -1,1 C 93 % 1035,2 hPa 0,0 mm 0,0 km/h (0 Bft) E 90 0 min 0 W/m -2,1 C -1,1 C 0,0 km/h (0 Bft)
25/12/2011 08:55 -0,9 C 93 % 1035,1 hPa 0,0 mm 0,0 km/h (0 Bft) E 90 0 min 0 W/m -1,9 C -0,9 C 0,0 km/h (0 Bft)
25/12/2011 09:00 -0,8 C 93 % 1035,2 hPa 0,0 mm 0,0 km/h (0 Bft) E-SE 112 0 min 0 W/m -1,8 C -0,8 C 0,0 km/h (0 Bft)
25/12/2011 09:05 -0,7 C 93 % 1035,4 hPa 0,0 mm 2,9 km/h (1 Bft) NE 45 0 min 0 W/m -1,7 C -0,7 C 4,3 km/h (1 Bft)
25/12/2011 09:10 -0,7 C 93 % 1035,5 hPa 0,0 mm 2,5 km/h (1 Bft) E 90 0 min 0 W/m -1,7 C -0,7 C 2,9 km/h (1 Bft)
25/12/2011 09:15 -0,7 C 93 % 1035,6 hPa 0,0 mm 1,1 km/h (1 Bft) E 90 0 min 0 W/m -1,7 C -0,7 C 3,6 km/h (1 Bft)
25/12/2011 09:20 -0,7 C 93 % 1035,5 hPa 0,0 mm 0,0 km/h (0 Bft) E 90 0 min 0 W/m -1,7 C -0,7 C 0,0 km/h (0 Bft)
25/12/2011 09:25 -0,6 C 93 % 1035,6 hPa 0,0 mm 0,0 km/h (0 Bft) E 90 0 min 0 W/m -1,6 C -0,6 C 0,0 km/h (0 Bft)
25/12/2011 09:30 -0,6 C 93 % 1035,7 hPa 0,0 mm 0,0 km/h (0 Bft) E 90 0 min 0 W/m -1,6 C -0,6 C 0,0 km/h (0 Bft)
25/12/2011 09:35 -0,5 C 94 % 1035,7 hPa 0,0 mm 0,0 km/h (0 Bft) E 90 0 min 0 W/m -1,3 C -0,5 C 0,0 km/h (0 Bft)
25/12/2011 09:40 -0,3 C 94 % 1035,8 hPa 0,0 mm 0,0 km/h (0 Bft) E 90 0 min 0 W/m -1,1 C -0,3 C 0,0 km/h (0 Bft)
25/12/2011 09:45 -0,2 C 94 % 1036,0 hPa 0,0 mm 0,0 km/h (0 Bft) E 90 0 min 0 W/m -1,0 C -0,2 C 0,0 km/h (0 Bft)
25/12/2011 09:50 0,1 C 94 % 1036,0 hPa 0,0 mm 0,0 km/h (0 Bft) E 90 0 min 0 W/m -0,7 C 0,1 C 0,0 km/h (0 Bft)
25/12/2011 09:55 0,5 C 95 % 1036,0 hPa 0,0 mm 0,0 km/h (0 Bft) E 90 0 min 0 W/m -0,2 C 0,5 C 0,0 km/h (0 Bft)
25/12/2011 10:00 0,9 C 95 % 1036,1 hPa 0,0 mm 0,0 km/h (0 Bft) E 90 0 min 0 W/m 0,2 C 0,9 C 0,0 km/h (0 Bft)
25/12/2011 10:05 1,3 C 95 % 1036,1 hPa 0,0 mm 0,0 km/h (0 Bft) E 90 0 min 0 W/m 0,6 C 1,3 C 0,0 km/h (0 Bft)
25/12/2011 10:10 1,4 C 94 % 1036,1 hPa 0,0 mm 0,0 km/h (0 Bft) E 90 0 min 0 W/m 0,5 C 1,4 C 0,0 km/h (0 Bft)
25/12/2011 10:15 1,4 C 93 % 1036,2 hPa 0,0 mm 0,0 km/h (0 Bft) E 90 0 min 0 W/m 0,4 C 1,4 C 0,0 km/h (0 Bft)
25/12/2011 10:20 1,2 C 93 % 1036,2 hPa 0,0 mm 0,7 km/h (0 Bft) E 90 0 min 0 W/m 0,2 C 1,2 C 0,7 km/h (0 Bft)
25/12/2011 10:25 1,1 C 93 % 1036,2 hPa 0,0 mm 0,7 km/h (0 Bft) E-SE 112 0 min 0 W/m 0,1 C 1,1 C 3,2 km/h (1 Bft)
25/12/2011 10:30 1,1 C 93 % 1036,3 hPa 0,0 mm 0,0 km/h (0 Bft) E-SE 112 0 min 0 W/m 0,1 C 1,1 C 0,0 km/h (0 Bft)
25/12/2011 10:35 1,1 C 93 % 1036,3 hPa 0,0 mm 0,0 km/h (0 Bft) E-SE 112 0 min 0 W/m 0,1 C 1,1 C 0,0 km/h (0 Bft)
25/12/2011 10:40 1,1 C 93 % 1036,5 hPa 0,0 mm 0,0 km/h (0 Bft) E-SE 112 0 min 0 W/m 0,1 C 1,1 C 0,0 km/h (0 Bft)
25/12/2011 10:45 1,2 C 93 % 1036,4 hPa 0,0 mm 0,0 km/h (0 Bft) E-SE 112 0 min 0 W/m 0,2 C 1,2 C 0,0 km/h (0 Bft)
25/12/2011 10:50 1,4 C 94 % 1035,9 hPa 0,0 mm 0,0 km/h (0 Bft) E 90 0 min 0 W/m 0,5 C 1,4 C 0,0 km/h (0 Bft)
25/12/2011 10:55 1,7 C 94 % 1036,0 hPa 0,0 mm 0,0 km/h (0 Bft) E 90 0 min 0 W/m 0,8 C 1,7 C 0,0 km/h (0 Bft)
25/12/2011 11:00 2,0 C 94 % 1036,0 hPa 0,0 mm 0,0 km/h (0 Bft) E 90 0 min 0 W/m 1,1 C 2,0 C 0,0 km/h (0 Bft)
25/12/2011 11:05 2,4 C 94 % 1036,2 hPa 0,0 mm 0,0 km/h (0 Bft) E 90 0 min 0 W/m 1,5 C 2,4 C 0,0 km/h (0 Bft)
25/12/2011 11:10 2,8 C 94 % 1036,4 hPa 0,0 mm 0,0 km/h (0 Bft) E 90 0 min 0 W/m 1,9 C 2,8 C 0,0 km/h (0 Bft)
25/12/2011 11:15 3,3 C 94 % 1036,8 hPa 0,0 mm 0,0 km/h (0 Bft) E 90 0 min 0 W/m 2,4 C 3,3 C 0,0 km/h (0 Bft)
25/12/2011 11:20 3,8 C 94 % 1036,6 hPa 0,0 mm 0,0 km/h (0 Bft) E 90 0 min 0 W/m 2,9 C 3,8 C 0,0 km/h (0 Bft)
25/12/2011 11:25 4,2 C 94 % 1036,4 hPa 0,0 mm 0,0 km/h (0 Bft) E 90 0 min 0 W/m 3,3 C 4,2 C 0,0 km/h (0 Bft)
25/12/2011 11:30 4,6 C 94 % 1036,4 hPa 0,0 mm 0,0 km/h (0 Bft) E-SE 112 0 min 0 W/m 3,7 C 4,6 C 0,0 km/h (0 Bft)
25/12/2011 11:35 5,1 C 93 % 1036,5 hPa 0,0 mm 0,0 km/h (0 Bft) E-SE 112 0 min 0 W/m 4,1 C 5,1 C 0,0 km/h (0 Bft)
25/12/2011 11:40 5,5 C 93 % 1036,4 hPa 0,0 mm 0,0 km/h (0 Bft) S 180 0 min 0 W/m 4,5 C 5,5 C 0,0 km/h (0 Bft)
25/12/2011 11:45 5,8 C 92 % 1036,4 hPa 0,0 mm 3,2 km/h (1 Bft) E-SE 112 0 min 0 W/m 4,6 C 5,8 C 3,6 km/h (1 Bft)
25/12/2011 11:50 5,8 C 91 % 1036,3 hPa 0,0 mm 0,0 km/h (0 Bft) E-SE 112 0 min 0 W/m 4,4 C 5,8 C 0,0 km/h (0 Bft)
25/12/2011 11:55 6,1 C 91 % 1036,4 hPa 0,0 mm 0,0 km/h (0 Bft) E-SE 112 0 min 0 W/m 4,7 C 6,1 C 0,0 km/h (0 Bft)
25/12/2011 12:00 6,4 C 90 % 1036,3 hPa 0,0 mm 0,0 km/h (0 Bft) SO 225 0 min 0 W/m 4,9 C 6,4 C 4,0 km/h (1 Bft)
25/12/2011 12:05 6,8 C 89 % 1036,3 hPa 0,0 mm 0,0 km/h (0 Bft) S-SO 202 0 min 0 W/m 5,1 C 6,8 C 0,0 km/h (0 Bft)
25/12/2011 12:10 7,1 C 89 % 1036,4 hPa 0,0 mm 0,0 km/h (0 Bft) SO 225 0 min 0 W/m 5,4 C 7,1 C 0,0 km/h (0 Bft)
25/12/2011 12:15 7,3 C 89 % 1036,5 hPa 0,0 mm 0,0 km/h (0 Bft) SO 225 0 min 0 W/m 5,6 C 7,3 C 0,0 km/h (0 Bft)
25/12/2011 12:20 7,1 C 88 % 1036,6 hPa 0,0 mm 0,0 km/h (0 Bft) NE 45 0 min 0 W/m 5,2 C 7,1 C 0,0 km/h (0 Bft)
25/12/2011 12:25 6,9 C 88 % 1036,5 hPa 0,0 mm 0,0 km/h (0 Bft) NE 45 0 min 0 W/m 5,1 C 6,9 C 0,0 km/h (0 Bft)
25/12/2011 12:30 6,6 C 88 % 1036,4 hPa 0,0 mm 0,0 km/h (0 Bft) NE 45 0 min 0 W/m 4,8 C 6,6 C 0,0 km/h (0 Bft)
25/12/2011 12:35 6,5 C 88 % 1036,3 hPa 0,0 mm 0,0 km/h (0 Bft) NE 45 0 min 0 W/m 4,7 C 6,5 C 0,0 km/h (0 Bft)
25/12/2011 12:40 6,3 C 88 % 1036,2 hPa 0,0 mm 0,0 km/h (0 Bft) O-SO 247 0 min 0 W/m 4,5 C 6,3 C 0,0 km/h (0 Bft)
25/12/2011 12:45 6,3 C 89 % 1036,2 hPa 0,0 mm 0,0 km/h (0 Bft) E 90 0 min 0 W/m 4,6 C 6,3 C 0,0 km/h (0 Bft)
25/12/2011 12:50 6,2 C 89 % 1036,2 hPa 0,0 mm 0,0 km/h (0 Bft) E 90 0 min 0 W/m 4,5 C 6,2 C 0,0 km/h (0 Bft)
25/12/2011 12:55 6,1 C 89 % 1036,1 hPa 0,0 mm 0,0 km/h (0 Bft) E 90 0 min 0 W/m 4,4 C 6,1 C 0,0 km/h (0 Bft)
25/12/2011 13:00 5,9 C 89 % 1036,2 hPa 0,0 mm 0,0 km/h (0 Bft) E 90 0 min 0 W/m 4,2 C 5,9 C 0,0 km/h (0 Bft)
25/12/2011 13:05 6,0 C 89 % 1036,1 hPa 0,0 mm 0,0 km/h (0 Bft) E 90 0 min 0 W/m 4,3 C 6,0 C 0,0 km/h (0 Bft)
25/12/2011 13:10 5,9 C 89 % 1035,7 hPa 0,0 mm 0,0 km/h (0 Bft) E-NE 67 0 min 0 W/m 4,2 C 5,9 C 0,0 km/h (0 Bft)
25/12/2011 13:15 5,9 C 89 % 1035,6 hPa 0,0 mm 0,0 km/h (0 Bft) E-NE 67 0 min 0 W/m 4,2 C 5,9 C 0,0 km/h (0 Bft)
25/12/2011 13:20 5,8 C 89 % 1035,7 hPa 0,0 mm 0,0 km/h (0 Bft) E-NE 67 0 min 0 W/m 4,1 C 5,8 C 0,0 km/h (0 Bft)
25/12/2011 13:25 5,9 C 89 % 1036,1 hPa 0,0 mm 0,0 km/h (0 Bft) E-NE 67 0 min 0 W/m 4,2 C 5,9 C 0,0 km/h (0 Bft)
25/12/2011 13:30 6,1 C 89 % 1036,1 hPa 0,0 mm 0,0 km/h (0 Bft) E-NE 67 0 min 0 W/m 4,4 C 6,1 C 0,0 km/h (0 Bft)
25/12/2011 13:35 6,2 C 89 % 1036,0 hPa 0,0 mm 0,0 km/h (0 Bft) E-NE 67 0 min 0 W/m 4,5 C 6,2 C 0,0 km/h (0 Bft)
25/12/2011 13:40 6,3 C 89 % 1035,9 hPa 0,0 mm 0,0 km/h (0 Bft) E-SE 112 0 min 0 W/m 4,6 C 6,3 C 0,0 km/h (0 Bft)
25/12/2011 13:45 6,3 C 89 % 1035,9 hPa 0,0 mm 0,0 km/h (0 Bft) O 270 0 min 0 W/m 4,6 C 6,3 C 0,0 km/h (0 Bft)
25/12/2011 13:50 6,4 C 87 % 1035,9 hPa 0,0 mm 2,2 km/h (1 Bft) SO 225 0 min 0 W/m 4,4 C 6,4 C 4,3 km/h (1 Bft)
25/12/2011 13:55 6,6 C 86 % 1035,8 hPa 0,0 mm 0,0 km/h (0 Bft) O-SO 247 0 min 0 W/m 4,4 C 6,6 C 0,0 km/h (0 Bft)
25/12/2011 14:00 6,9 C 85 % 1035,9 hPa 0,0 mm 0,4 km/h (0 Bft) O-SO 247 0 min 0 W/m 4,6 C 6,9 C 0,4 km/h (0 Bft)
25/12/2011 14:05 7,1 C 85 % 1036,0 hPa 0,0 mm 2,2 km/h (1 Bft) S-SO 202 0 min 0 W/m 4,8 C 7,1 C 6,8 km/h (2 Bft)
25/12/2011 14:10 7,1 C 85 % 1035,9 hPa 0,0 mm 0,7 km/h (0 Bft) O 270 0 min 0 W/m 4,8 C 7,1 C 0,7 km/h (0 Bft)
25/12/2011 14:15 7,2 C 85 % 1035,8 hPa 0,0 mm 0,7 km/h (0 Bft) O 270 0 min 0 W/m 4,9 C 7,2 C 4,0 km/h (1 Bft)
25/12/2011 14:20 7,5 C 85 % 1035,8 hPa 0,0 mm 0,0 km/h (0 Bft) O-SO 247 0 min 0 W/m 5,1 C 7,5 C 0,0 km/h (0 Bft)
25/12/2011 14:25 7,8 C 85 % 1035,8 hPa 0,0 mm 3,6 km/h (1 Bft) O-NO 292 0 min 0 W/m 5,4 C 7,8 C 4,0 km/h (1 Bft)
25/12/2011 14:30 7,9 C 84 % 1035,7 hPa 0,0 mm 1,4 km/h (1 Bft) S-SO 202 0 min 0 W/m 5,4 C 7,9 C 1,4 km/h (1 Bft)
25/12/2011 14:35 8,2 C 82 % 1035,7 hPa 0,0 mm 3,6 km/h (1 Bft) SO 225 0 min 0 W/m 5,3 C 8,2 C 4,3 km/h (1 Bft)
25/12/2011 14:40 8,3 C 83 % 1035,6 hPa 0,0 mm 0,0 km/h (0 Bft) O-SO 247 0 min 0 W/m 5,6 C 8,3 C 0,0 km/h (0 Bft)
25/12/2011 14:45 8,4 C 82 % 1035,6 hPa 0,0 mm 0,0 km/h (0 Bft) S-SO 202 0 min 0 W/m 5,5 C 8,4 C 3,6 km/h (1 Bft)
25/12/2011 14:50 8,3 C 82 % 1035,5 hPa 0,0 mm 0,0 km/h (0 Bft) O-SO 247 0 min 0 W/m 5,4 C 8,3 C 0,0 km/h (0 Bft)
25/12/2011 14:55 8,3 C 82 % 1035,5 hPa 0,0 mm 0,0 km/h (0 Bft) O-SO 247 0 min 0 W/m 5,4 C 8,3 C 0,0 km/h (0 Bft)
25/12/2011 15:00 8,3 C 82 % 1035,5 hPa 0,0 mm 1,8 km/h (1 Bft) S-SO 202 0 min 0 W/m 5,4 C 8,3 C 4,3 km/h (1 Bft)
25/12/2011 15:05 8,3 C 82 % 1035,6 hPa 0,0 mm 0,0 km/h (0 Bft) SO 225 0 min 0 W/m 5,4 C 8,3 C 0,0 km/h (0 Bft)
25/12/2011 15:10 8,3 C 81 % 1035,5 hPa 0,0 mm 0,4 km/h (0 Bft) S 180 0 min 0 W/m 5,2 C 8,3 C 3,2 km/h (1 Bft)
25/12/2011 15:15 8,4 C 81 % 1035,4 hPa 0,0 mm 1,1 km/h (1 Bft) S 180 0 min 0 W/m 5,3 C 8,4 C 4,3 km/h (1 Bft)
25/12/2011 15:20 8,4 C 82 % 1035,4 hPa 0,0 mm 2,2 km/h (1 Bft) S-SO 202 0 min 0 W/m 5,5 C 8,4 C 4,0 km/h (1 Bft)
25/12/2011 15:25 8,4 C 81 % 1035,4 hPa 0,0 mm 0,0 km/h (0 Bft) O-SO 247 0 min 0 W/m 5,3 C 8,4 C 0,0 km/h (0 Bft)
25/12/2011 15:30 8,3 C 81 % 1035,4 hPa 0,0 mm 0,4 km/h (0 Bft) S 180 0 min 0 W/m 5,2 C 8,3 C 0,4 km/h (0 Bft)
25/12/2011 15:35 8,3 C 82 % 1035,4 hPa 0,0 mm 0,0 km/h (0 Bft) SO 225 0 min 0 W/m 5,4 C 8,3 C 0,0 km/h (0 Bft)
25/12/2011 15:40 8,3 C 81 % 1035,5 hPa 0,0 mm 0,0 km/h (0 Bft) SO 225 0 min 0 W/m 5,2 C 8,3 C 0,0 km/h (0 Bft)
25/12/2011 15:45 8,2 C 82 % 1035,4 hPa 0,0 mm 1,1 km/h (1 Bft) O 270 0 min 0 W/m 5,3 C 8,2 C 4,3 km/h (1 Bft)
25/12/2011 15:50 8,1 C 82 % 1035,5 hPa 0,0 mm 0,0 km/h (0 Bft) O 270 0 min 0 W/m 5,2 C 8,1 C 0,0 km/h (0 Bft)
25/12/2011 15:55 8,0 C 82 % 1035,5 hPa 0,0 mm 0,0 km/h (0 Bft) O 270 0 min 0 W/m 5,1 C 8,0 C 0,0 km/h (0 Bft)
25/12/2011 16:00 7,9 C 82 % 1035,5 hPa 0,0 mm 0,0 km/h (0 Bft) O 270 0 min 0 W/m 5,0 C 7,9 C 0,0 km/h (0 Bft)
25/12/2011 16:05 7,8 C 82 % 1035,6 hPa 0,0 mm 0,0 km/h (0 Bft) O 270 0 min 0 W/m 4,9 C 7,8 C 0,0 km/h (0 Bft)
25/12/2011 16:10 7,6 C 82 % 1035,6 hPa 0,0 mm 0,0 km/h (0 Bft) O-SO 247 0 min 0 W/m 4,7 C 7,6 C 0,0 km/h (0 Bft)
25/12/2011 16:15 7,4 C 82 % 1035,5 hPa 0,0 mm 0,0 km/h (0 Bft) O-SO 247 0 min 0 W/m 4,5 C 7,4 C 0,0 km/h (0 Bft)
25/12/2011 16:20 7,3 C 82 % 1035,5 hPa 0,0 mm 0,0 km/h (0 Bft) O-SO 247 0 min 0 W/m 4,4 C 7,3 C 0,0 km/h (0 Bft)
25/12/2011 16:25 7,1 C 83 % 1035,4 hPa 0,0 mm 0,0 km/h (0 Bft) O-SO 247 0 min 0 W/m 4,4 C 7,1 C 0,0 km/h (0 Bft)
25/12/2011 16:30 7,1 C 83 % 1035,3 hPa 0,0 mm 0,0 km/h (0 Bft) O-SO 247 0 min 0 W/m 4,4 C 7,1 C 0,0 km/h (0 Bft)
25/12/2011 16:35 6,8 C 83 % 1035,4 hPa 0,0 mm 0,0 km/h (0 Bft) O-SO 247 0 min 0 W/m 4,1 C 6,8 C 0,0 km/h (0 Bft)
25/12/2011 16:40 6,8 C 84 % 1035,5 hPa 0,0 mm 0,0 km/h (0 Bft) O-SO 247 0 min 0 W/m 4,3 C 6,8 C 0,0 km/h (0 Bft)
25/12/2011 16:45 6,6 C 84 % 1035,5 hPa 0,0 mm 0,0 km/h (0 Bft) O-SO 247 0 min 0 W/m 4,1 C 6,6 C 0,0 km/h (0 Bft)
25/12/2011 16:50 6,4 C 85 % 1035,6 hPa 0,0 mm 0,0 km/h (0 Bft) O-SO 247 0 min 0 W/m 4,1 C 6,4 C 0,0 km/h (0 Bft)
25/12/2011 16:55 6,3 C 85 % 1035,5 hPa 0,0 mm 0,0 km/h (0 Bft) O-SO 247 0 min 0 W/m 4,0 C 6,3 C 0,0 km/h (0 Bft)
25/12/2011 17:00 6,1 C 85 % 1035,5 hPa 0,0 mm 0,0 km/h (0 Bft) O-SO 247 0 min 0 W/m 3,8 C 6,1 C 0,0 km/h (0 Bft)
25/12/2011 17:05 5,9 C 85 % 1035,6 hPa 0,0 mm 0,0 km/h (0 Bft) O-SO 247 0 min 0 W/m 3,6 C 5,9 C 0,0 km/h (0 Bft)
25/12/2011 17:10 5,8 C 85 % 1035,6 hPa 0,0 mm 0,0 km/h (0 Bft) O-SO 247 0 min 0 W/m 3,5 C 5,8 C 0,0 km/h (0 Bft)
25/12/2011 17:15 5,5 C 86 % 1035,7 hPa 0,0 mm 0,0 km/h (0 Bft) O-SO 247 0 min 0 W/m 3,3 C 5,5 C 0,0 km/h (0 Bft)
25/12/2011 17:20 5,4 C 86 % 1035,8 hPa 0,0 mm 0,0 km/h (0 Bft) O-SO 247 0 min 0 W/m 3,3 C 5,4 C 0,0 km/h (0 Bft)
25/12/2011 17:25 5,1 C 86 % 1035,8 hPa 0,0 mm 0,0 km/h (0 Bft) O-SO 247 0 min 0 W/m 3,0 C 5,1 C 0,0 km/h (0 Bft)
25/12/2011 17:30 4,9 C 86 % 1035,9 hPa 0,0 mm 0,0 km/h (0 Bft) O-SO 247 0 min 0 W/m 2,8 C 4,9 C 0,0 km/h (0 Bft)
25/12/2011 17:35 4,8 C 86 % 1036,0 hPa 0,0 mm 0,0 km/h (0 Bft) O-SO 247 0 min 0 W/m 2,7 C 4,8 C 0,0 km/h (0 Bft)
25/12/2011 17:40 4,5 C 86 % 1036,0 hPa 0,0 mm 0,0 km/h (0 Bft) O-SO 247 0 min 0 W/m 2,4 C 4,5 C 0,0 km/h (0 Bft)
25/12/2011 17:45 4,3 C 87 % 1036,0 hPa 0,0 mm 0,0 km/h (0 Bft) O-SO 247 0 min 0 W/m 2,3 C 4,3 C 0,0 km/h (0 Bft)
25/12/2011 17:50 4,1 C 87 % 1036,0 hPa 0,0 mm 0,0 km/h (0 Bft) O-SO 247 0 min 0 W/m 2,1 C 4,1 C 0,0 km/h (0 Bft)
25/12/2011 17:55 4,0 C 88 % 1036,0 hPa 0,0 mm 0,0 km/h (0 Bft) O-SO 247 0 min 0 W/m 2,2 C 4,0 C 0,0 km/h (0 Bft)
25/12/2011 18:00 3,8 C 88 % 1036,0 hPa 0,0 mm 0,0 km/h (0 Bft) O-SO 247 0 min 0 W/m 2,0 C 3,8 C 0,0 km/h (0 Bft)
25/12/2011 18:05 3,6 C 88 % 1035,9 hPa 0,0 mm 0,0 km/h (0 Bft) O-SO 247 0 min 0 W/m 1,8 C 3,6 C 0,0 km/h (0 Bft)
25/12/2011 18:10 3,4 C 88 % 1035,9 hPa 0,0 mm 0,0 km/h (0 Bft) O-SO 247 0 min 0 W/m 1,6 C 3,4 C 0,0 km/h (0 Bft)
25/12/2011 18:15 3,4 C 88 % 1035,9 hPa 0,0 mm 0,0 km/h (0 Bft) O-SO 247 0 min 0 W/m 1,6 C 3,4 C 0,0 km/h (0 Bft)
25/12/2011 18:20 3,4 C 89 % 1036,0 hPa 0,0 mm 0,0 km/h (0 Bft) O-SO 247 0 min 0 W/m 1,8 C 3,4 C 0,0 km/h (0 Bft)
25/12/2011 18:25 3,3 C 89 % 1035,9 hPa 0,0 mm 0,0 km/h (0 Bft) O-SO 247 0 min 0 W/m 1,7 C 3,3 C 0,0 km/h (0 Bft)
25/12/2011 18:30 3,2 C 89 % 1035,9 hPa 0,0 mm 0,0 km/h (0 Bft) O-SO 247 0 min 0 W/m 1,6 C 3,2 C 0,0 km/h (0 Bft)
25/12/2011 18:35 3,1 C 90 % 1036,0 hPa 0,0 mm 0,0 km/h (0 Bft) O-SO 247 0 min 0 W/m 1,6 C 3,1 C 0,0 km/h (0 Bft)
25/12/2011 18:40 3,1 C 90 % 1036,1 hPa 0,0 mm 0,0 km/h (0 Bft) O-SO 247 0 min 0 W/m 1,6 C 3,1 C 0,0 km/h (0 Bft)
25/12/2011 18:45 3,1 C 90 % 1036,1 hPa 0,0 mm 0,0 km/h (0 Bft) O-SO 247 0 min 0 W/m 1,6 C 3,1 C 0,0 km/h (0 Bft)
25/12/2011 18:50 2,9 C 90 % 1036,1 hPa 0,0 mm 0,0 km/h (0 Bft) O-SO 247 0 min 0 W/m 1,4 C 2,9 C 0,0 km/h (0 Bft)
25/12/2011 18:55 2,9 C 91 % 1036,2 hPa 0,0 mm 0,0 km/h (0 Bft) O-SO 247 0 min 0 W/m 1,6 C 2,9 C 0,0 km/h (0 Bft)
25/12/2011 19:00 2,9 C 91 % 1036,2 hPa 0,0 mm 0,0 km/h (0 Bft) O-SO 247 0 min 0 W/m 1,6 C 2,9 C 0,0 km/h (0 Bft)
25/12/2011 19:05 3,1 C 91 % 1036,2 hPa 0,0 mm 0,0 km/h (0 Bft) S-SO 202 0 min 0 W/m 1,8 C 3,1 C 0,0 km/h (0 Bft)
25/12/2011 19:10 3,1 C 91 % 1036,3 hPa 0,0 mm 0,0 km/h (0 Bft) S-SE 157 0 min 0 W/m 1,8 C 3,1 C 0,0 km/h (0 Bft)
25/12/2011 19:15 3,2 C 91 % 1036,3 hPa 0,0 mm 0,0 km/h (0 Bft) S-SE 157 0 min 0 W/m 1,9 C 3,2 C 0,0 km/h (0 Bft)
25/12/2011 19:20 3,3 C 91 % 1036,3 hPa 0,0 mm 0,0 km/h (0 Bft) E-SE 112 0 min 0 W/m 2,0 C 3,3 C 0,0 km/h (0 Bft)
25/12/2011 19:25 3,4 C 91 % 1036,2 hPa 0,0 mm 1,1 km/h (1 Bft) E-SE 112 0 min 0 W/m 2,1 C 3,4 C 1,1 km/h (1 Bft)
25/12/2011 19:30 3,5 C 91 % 1036,2 hPa 0,0 mm 0,0 km/h (0 Bft) E-SE 112 0 min 0 W/m 2,2 C 3,5 C 0,0 km/h (0 Bft)
25/12/2011 19:35 3,6 C 91 % 1036,1 hPa 0,0 mm 0,0 km/h (0 Bft) E-SE 112 0 min 0 W/m 2,3 C 3,6 C 0,0 km/h (0 Bft)
25/12/2011 19:40 3,7 C 91 % 1036,2 hPa 0,0 mm 0,0 km/h (0 Bft) E-SE 112 0 min 0 W/m 2,4 C 3,7 C 0,0 km/h (0 Bft)
25/12/2011 19:45 3,8 C 91 % 1036,2 hPa 0,0 mm 0,0 km/h (0 Bft) E-SE 112 0 min 0 W/m 2,5 C 3,8 C 0,0 km/h (0 Bft)
25/12/2011 19:50 3,8 C 91 % 1036,5 hPa 0,0 mm 0,0 km/h (0 Bft) E-NE 67 0 min 0 W/m 2,5 C 3,8 C 0,0 km/h (0 Bft)
25/12/2011 19:55 3,7 C 91 % 1036,3 hPa 0,0 mm 0,0 km/h (0 Bft) E-NE 67 0 min 0 W/m 2,4 C 3,7 C 0,0 km/h (0 Bft)
25/12/2011 20:00 3,6 C 91 % 1036,4 hPa 0,0 mm 0,0 km/h (0 Bft) N 360 0 min 0 W/m 2,3 C 3,6 C 0,0 km/h (0 Bft)
25/12/2011 20:05 3,6 C 91 % 1036,3 hPa 0,0 mm 0,0 km/h (0 Bft) E-NE 67 0 min 0 W/m 2,3 C 3,6 C 0,0 km/h (0 Bft)
25/12/2011 20:10 3,6 C 91 % 1036,2 hPa 0,0 mm 0,0 km/h (0 Bft) E 90 0 min 0 W/m 2,3 C 3,6 C 0,0 km/h (0 Bft)
25/12/2011 20:15 3,5 C 91 % 1036,1 hPa 0,0 mm 0,0 km/h (0 Bft) E 90 0 min 0 W/m 2,2 C 3,5 C 0,0 km/h (0 Bft)
25/12/2011 20:20 3,5 C 91 % 1036,1 hPa 0,0 mm 0,0 km/h (0 Bft) E 90 0 min 0 W/m 2,2 C 3,5 C 0,0 km/h (0 Bft)
25/12/2011 20:25 3,4 C 91 % 1036,2 hPa 0,0 mm 0,0 km/h (0 Bft) E 90 0 min 0 W/m 2,1 C 3,4 C 0,0 km/h (0 Bft)
25/12/2011 20:30 3,4 C 91 % 1036,1 hPa 0,0 mm 0,0 km/h (0 Bft) E 90 0 min 0 W/m 2,1 C 3,4 C 0,0 km/h (0 Bft)
25/12/2011 20:35 3,4 C 91 % 1036,1 hPa 0,0 mm 0,0 km/h (0 Bft) E 90 0 min 0 W/m 2,1 C 3,4 C 0,0 km/h (0 Bft)
25/12/2011 20:40 3,3 C 91 % 1036,4 hPa 0,0 mm 0,7 km/h (0 Bft) E-NE 67 0 min 0 W/m 2,0 C 3,3 C 3,6 km/h (1 Bft)
25/12/2011 20:45 3,1 C 91 % 1036,4 hPa 0,0 mm 0,0 km/h (0 Bft) E-NE 67 0 min 0 W/m 1,8 C 3,1 C 0,0 km/h (0 Bft)
25/12/2011 20:50 3,0 C 91 % 1036,5 hPa 0,0 mm 0,0 km/h (0 Bft) E-NE 67 0 min 0 W/m 1,7 C 3,0 C 0,0 km/h (0 Bft)
25/12/2011 20:55 2,8 C 91 % 1036,5 hPa 0,0 mm 0,0 km/h (0 Bft) E 90 0 min 0 W/m 1,5 C 2,8 C 0,0 km/h (0 Bft)
25/12/2011 21:00 2,8 C 91 % 1036,5 hPa 0,0 mm 0,4 km/h (0 Bft) E 90 0 min 0 W/m 1,5 C 2,8 C 0,4 km/h (0 Bft)
25/12/2011 21:05 2,6 C 91 % 1036,6 hPa 0,0 mm 0,0 km/h (0 Bft) E 90 0 min 0 W/m 1,3 C 2,6 C 0,0 km/h (0 Bft)
25/12/2011 21:10 2,6 C 91 % 1036,7 hPa 0,0 mm 0,0 km/h (0 Bft) E 90 0 min 0 W/m 1,3 C 2,6 C 0,0 km/h (0 Bft)
25/12/2011 21:15 2,5 C 91 % 1036,6 hPa 0,0 mm 2,2 km/h (1 Bft) E-SE 112 0 min 0 W/m 1,2 C 2,5 C 3,6 km/h (1 Bft)
25/12/2011 21:20 2,5 C 92 % 1036,6 hPa 0,0 mm 3,2 km/h (1 Bft) E-SE 112 0 min 0 W/m 1,3 C 2,5 C 3,2 km/h (1 Bft)
25/12/2011 21:25 2,6 C 92 % 1036,6 hPa 0,0 mm 0,0 km/h (0 Bft) E-SE 112 0 min 0 W/m 1,4 C 2,6 C 0,0 km/h (0 Bft)
25/12/2011 21:30 2,6 C 92 % 1036,5 hPa 0,0 mm 0,0 km/h (0 Bft) E 90 0 min 0 W/m 1,4 C 2,6 C 0,0 km/h (0 Bft)
25/12/2011 21:35 2,6 C 92 % 1036,6 hPa 0,0 mm 0,4 km/h (0 Bft) E 90 0 min 0 W/m 1,4 C 2,6 C 4,0 km/h (1 Bft)
25/12/2011 21:40 2,5 C 92 % 1036,7 hPa 0,0 mm 0,0 km/h (0 Bft) E 90 0 min 0 W/m 1,3 C 2,5 C 0,0 km/h (0 Bft)
25/12/2011 21:45 2,4 C 92 % 1036,7 hPa 0,0 mm 0,0 km/h (0 Bft) E 90 0 min 0 W/m 1,2 C 2,4 C 0,0 km/h (0 Bft)
25/12/2011 21:50 2,4 C 92 % 1036,7 hPa 0,0 mm 0,0 km/h (0 Bft) E 90 0 min 0 W/m 1,2 C 2,4 C 0,0 km/h (0 Bft)
25/12/2011 21:55 2,3 C 92 % 1036,7 hPa 0,0 mm 0,0 km/h (0 Bft) E 90 0 min 0 W/m 1,1 C 2,3 C 0,0 km/h (0 Bft)
25/12/2011 22:00 2,2 C 92 % 1036,7 hPa 0,0 mm 0,0 km/h (0 Bft) E 90 0 min 0 W/m 1,0 C 2,2 C 0,0 km/h (0 Bft)
25/12/2011 22:05 2,0 C 92 % 1036,8 hPa 0,0 mm 0,0 km/h (0 Bft) E 90 0 min 0 W/m 0,8 C 2,0 C 0,0 km/h (0 Bft)
25/12/2011 22:10 1,8 C 92 % 1036,7 hPa 0,0 mm 0,0 km/h (0 Bft) E 90 0 min 0 W/m 0,6 C 1,8 C 0,0 km/h (0 Bft)
25/12/2011 22:15 1,8 C 92 % 1036,7 hPa 0,0 mm 0,0 km/h (0 Bft) E 90 0 min 0 W/m 0,6 C 1,8 C 0,0 km/h (0 Bft)
25/12/2011 22:20 1,7 C 92 % 1036,7 hPa 0,0 mm 0,0 km/h (0 Bft) E 90 0 min 0 W/m 0,5 C 1,7 C 0,0 km/h (0 Bft)
25/12/2011 22:25 1,6 C 92 % 1036,7 hPa 0,0 mm 0,0 km/h (0 Bft) E 90 0 min 0 W/m 0,4 C 1,6 C 0,0 km/h (0 Bft)
25/12/2011 22:30 1,6 C 92 % 1036,7 hPa 0,0 mm 0,0 km/h (0 Bft) E 90 0 min 0 W/m 0,4 C 1,6 C 0,0 km/h (0 Bft)
25/12/2011 22:35 1,6 C 92 % 1036,6 hPa 0,0 mm 0,0 km/h (0 Bft) E 90 0 min 0 W/m 0,4 C 1,6 C 0,0 km/h (0 Bft)
25/12/2011 22:40 1,6 C 92 % 1036,7 hPa 0,0 mm 0,4 km/h (0 Bft) E-SE 112 0 min 0 W/m 0,4 C 1,6 C 3,6 km/h (1 Bft)
25/12/2011 22:45 1,6 C 92 % 1036,7 hPa 0,0 mm 0,0 km/h (0 Bft) E-SE 112 0 min 0 W/m 0,4 C 1,6 C 0,0 km/h (0 Bft)
25/12/2011 22:50 1,6 C 92 % 1036,8 hPa 0,0 mm 0,0 km/h (0 Bft) E-SE 112 0 min 0 W/m 0,4 C 1,6 C 0,0 km/h (0 Bft)
25/12/2011 22:55 1,5 C 92 % 1036,6 hPa 0,0 mm 1,1 km/h (1 Bft) E-SE 112 0 min 0 W/m 0,3 C 1,5 C 4,0 km/h (1 Bft)
25/12/2011 23:00 1,4 C 92 % 1036,7 hPa 0,0 mm 0,0 km/h (0 Bft) E 90 0 min 0 W/m 0,2 C 1,4 C 0,0 km/h (0 Bft)
25/12/2011 23:05 1,4 C 92 % 1036,6 hPa 0,0 mm 0,0 km/h (0 Bft) E 90 0 min 0 W/m 0,2 C 1,4 C 0,0 km/h (0 Bft)
25/12/2011 23:10 1,3 C 92 % 1036,8 hPa 0,0 mm 2,2 km/h (1 Bft) E 90 0 min 0 W/m 0,1 C 1,3 C 4,3 km/h (1 Bft)
25/12/2011 23:15 1,3 C 93 % 1036,6 hPa 0,0 mm 1,1 km/h (1 Bft) E-SE 112 0 min 0 W/m 0,3 C 1,3 C 2,9 km/h (1 Bft)
25/12/2011 23:20 1,3 C 93 % 1036,6 hPa 0,0 mm 0,0 km/h (0 Bft) E-SE 112 0 min 0 W/m 0,3 C 1,3 C 0,0 km/h (0 Bft)
25/12/2011 23:25 1,3 C 93 % 1036,6 hPa 0,0 mm 0,4 km/h (0 Bft) E 90 0 min 0 W/m 0,3 C 1,3 C 3,6 km/h (1 Bft)
25/12/2011 23:30 1,3 C 93 % 1036,7 hPa 0,0 mm 0,0 km/h (0 Bft) E-NE 67 0 min 0 W/m 0,3 C 1,3 C 0,0 km/h (0 Bft)
25/12/2011 23:35 1,2 C 92 % 1036,9 hPa 0,0 mm 0,0 km/h (0 Bft) E-NE 67 0 min 0 W/m 0,0 C 1,2 C 0,0 km/h (0 Bft)
25/12/2011 23:40 1,1 C 92 % 1036,9 hPa 0,0 mm 0,0 km/h (0 Bft) E 90 0 min 0 W/m -0,1 C 1,1 C 0,0 km/h (0 Bft)
25/12/2011 23:45 1,1 C 92 % 1036,9 hPa 0,0 mm 0,0 km/h (0 Bft) E 90 0 min 0 W/m -0,1 C 1,1 C 0,0 km/h (0 Bft)
25/12/2011 23:50 0,9 C 92 % 1037,0 hPa 0,0 mm 0,0 km/h (0 Bft) E-SE 112 0 min 0 W/m -0,2 C 0,9 C 0,0 km/h (0 Bft)
25/12/2011 23:55 0,8 C 93 % 1036,9 hPa 0,0 mm 0,4 km/h (0 Bft) E-SE 112 0 min 0 W/m -0,2 C 0,8 C 3,6 km/h (1 Bft)
_ Min-Heure 04:15 15:40 02:35 - 23:50 - - - - 04:15 08:15 23:50
Minimum _ -2,2 C 81 % 1034,1 hPa - 0,0 km/h (0 Bft) - - - - -3,3 C -3,5 C 0,0 km/h (0 Bft)
_ Max-Heure 15:25 10:05 23:50 23:55 08:15 - - 23:55 23:55 12:15 15:25 08:15
Maximum _ 8,4 C 95 % 1037,0 hPa 0,0 mm 5,0 km/h
E (1 Bft)
- - 0 min 0 W/m 5,6 C 8,4 C 7,2 km/h
E (2 Bft)
Moyenne _ 1,9 C 90 % 1035,6 hPa #0,0 mm 0,3 km/h (0 Bft) E - #0 min. 0 W/m 0,5 C 1,9 C 0,7 km/h (0 Bft)
Saint Bonnet de Bellac- Haute Vienne - France